sensor_id;sensor_type;location;lat;lon;timestamp;P1;durP1;ratioP1;P2;durP2;ratioP2
14474;SDS011;7323;50.848;4.334;2023-02-28T00:00:30;7.60;;;5.03;;
14474;SDS011;7323;50.848;4.334;2023-02-28T00:02:59;10.40;;;5.53;;
14474;SDS011;7323;50.848;4.334;2023-02-28T00:05:28;7.70;;;5.30;;
14474;SDS011;7323;50.848;4.334;2023-02-28T00:07:56;10.13;;;5.57;;
14474;SDS011;7323;50.848;4.334;2023-02-28T00:10:24;6.93;;;5.10;;
14474;SDS011;7323;50.848;4.334;2023-02-28T00:13:03;8.57;;;5.53;;
14474;SDS011;7323;50.848;4.334;2023-02-28T00:15:32;10.83;;;5.47;;
14474;SDS011;7323;50.848;4.334;2023-02-28T00:18:05;10.57;;;5.43;;
14474;SDS011;7323;50.848;4.334;2023-02-28T00:20:32;9.17;;;5.67;;
14474;SDS011;7323;50.848;4.334;2023-02-28T00:23:00;8.10;;;5.63;;
14474;SDS011;7323;50.848;4.334;2023-02-28T00:25:29;11.40;;;5.83;;
14474;SDS011;7323;50.848;4.334;2023-02-28T00:27:54;11.20;;;4.93;;
14474;SDS011;7323;50.848;4.334;2023-02-28T00:30:21;7.37;;;5.60;;
14474;SDS011;7323;50.848;4.334;2023-02-28T00:32:48;7.83;;;5.57;;
14474;SDS011;7323;50.848;4.334;2023-02-28T00:35:17;8.10;;;5.07;;
14474;SDS011;7323;50.848;4.334;2023-02-28T00:37:44;10.27;;;5.47;;
14474;SDS011;7323;50.848;4.334;2023-02-28T00:42:44;8.53;;;4.90;;
14474;SDS011;7323;50.848;4.334;2023-02-28T00:45:10;6.80;;;5.57;;
14474;SDS011;7323;50.848;4.334;2023-02-28T00:47:40;9.57;;;6.47;;
14474;SDS011;7323;50.848;4.334;2023-02-28T00:58:04;8.07;;;5.63;;
14474;SDS011;7323;50.848;4.334;2023-02-28T01:00:31;9.53;;;5.93;;
14474;SDS011;7323;50.848;4.334;2023-02-28T01:05:29;9.60;;;6.00;;
14474;SDS011;7323;50.848;4.334;2023-02-28T01:07:55;7.90;;;5.63;;
14474;SDS011;7323;50.848;4.334;2023-02-28T01:10:21;9.10;;;5.67;;
14474;SDS011;7323;50.848;4.334;2023-02-28T01:12:46;8.57;;;5.40;;
14474;SDS011;7323;50.848;4.334;2023-02-28T01:17:41;11.77;;;6.17;;
14474;SDS011;7323;50.848;4.334;2023-02-28T01:20:08;6.13;;;5.00;;
14474;SDS011;7323;50.848;4.334;2023-02-28T01:22:35;9.07;;;5.03;;
14474;SDS011;7323;50.848;4.334;2023-02-28T01:25:02;8.53;;;5.70;;
14474;SDS011;7323;50.848;4.334;2023-02-28T01:27:33;8.67;;;5.80;;
14474;SDS011;7323;50.848;4.334;2023-02-28T01:30:02;9.10;;;6.07;;
14474;SDS011;7323;50.848;4.334;2023-02-28T01:32:31;6.23;;;5.27;;
14474;SDS011;7323;50.848;4.334;2023-02-28T01:34:57;6.97;;;5.33;;
14474;SDS011;7323;50.848;4.334;2023-02-28T01:37:23;9.03;;;5.80;;
14474;SDS011;7323;50.848;4.334;2023-02-28T01:39:49;9.10;;;5.50;;
14474;SDS011;7323;50.848;4.334;2023-02-28T01:42:23;10.10;;;6.43;;
14474;SDS011;7323;50.848;4.334;2023-02-28T01:47:40;9.37;;;5.97;;
14474;SDS011;7323;50.848;4.334;2023-02-28T01:50:12;11.00;;;6.20;;
14474;SDS011;7323;50.848;4.334;2023-02-28T01:52:43;10.63;;;6.20;;
14474;SDS011;7323;50.848;4.334;2023-02-28T01:55:12;10.33;;;6.90;;
14474;SDS011;7323;50.848;4.334;2023-02-28T01:57:44;9.70;;;6.30;;
14474;SDS011;7323;50.848;4.334;2023-02-28T02:00:17;8.57;;;6.23;;
14474;SDS011;7323;50.848;4.334;2023-02-28T02:08:26;10.57;;;6.53;;
14474;SDS011;7323;50.848;4.334;2023-02-28T02:11:02;8.20;;;6.60;;
14474;SDS011;7323;50.848;4.334;2023-02-28T02:19:55;7.73;;;6.57;;
14474;SDS011;7323;50.848;4.334;2023-02-28T02:28:34;8.57;;;6.27;;
14474;SDS011;7323;50.848;4.334;2023-02-28T02:31:27;11.37;;;7.13;;
14474;SDS011;7323;50.848;4.334;2023-02-28T02:37:03;10.47;;;6.43;;
14474;SDS011;7323;50.848;4.334;2023-02-28T02:48:25;13.80;;;7.63;;
14474;SDS011;7323;50.848;4.334;2023-02-28T02:51:16;10.30;;;7.37;;
14474;SDS011;7323;50.848;4.334;2023-02-28T02:54:02;9.07;;;7.37;;
14474;SDS011;7323;50.848;4.334;2023-02-28T02:59:16;11.20;;;7.33;;
14474;SDS011;7323;50.848;4.334;2023-02-28T03:04:18;11.57;;;7.73;;
14474;SDS011;7323;50.848;4.334;2023-02-28T03:09:50;10.73;;;7.67;;
14474;SDS011;7323;50.848;4.334;2023-02-28T03:12:21;10.60;;;8.07;;
14474;SDS011;7323;50.848;4.334;2023-02-28T03:15:15;10.60;;;8.00;;
14474;SDS011;7323;50.848;4.334;2023-02-28T03:17:49;11.83;;;7.70;;
14474;SDS011;7323;50.848;4.334;2023-02-28T03:26:10;8.63;;;6.97;;
14474;SDS011;7323;50.848;4.334;2023-02-28T03:31:57;11.97;;;8.00;;
14474;SDS011;7323;50.848;4.334;2023-02-28T03:34:58;13.20;;;7.77;;
14474;SDS011;7323;50.848;4.334;2023-02-28T03:37:41;11.47;;;8.57;;
14474;SDS011;7323;50.848;4.334;2023-02-28T03:40:14;11.07;;;9.00;;
14474;SDS011;7323;50.848;4.334;2023-02-28T03:42:45;13.30;;;9.07;;
14474;SDS011;7323;50.848;4.334;2023-02-28T03:45:29;12.60;;;8.73;;
14474;SDS011;7323;50.848;4.334;2023-02-28T03:50:37;10.97;;;8.60;;
14474;SDS011;7323;50.848;4.334;2023-02-28T03:53:16;12.57;;;8.57;;
14474;SDS011;7323;50.848;4.334;2023-02-28T03:55:53;12.83;;;9.50;;
14474;SDS011;7323;50.848;4.334;2023-02-28T04:01:16;13.63;;;8.87;;
14474;SDS011;7323;50.848;4.334;2023-02-28T04:03:52;9.87;;;8.20;;
14474;SDS011;7323;50.848;4.334;2023-02-28T04:06:19;10.67;;;8.43;;
14474;SDS011;7323;50.848;4.334;2023-02-28T04:08:48;14.43;;;8.87;;
14474;SDS011;7323;50.848;4.334;2023-02-28T04:11:18;12.83;;;9.53;;
14474;SDS011;7323;50.848;4.334;2023-02-28T04:13:52;11.77;;;8.30;;
14474;SDS011;7323;50.848;4.334;2023-02-28T04:16:18;13.33;;;9.30;;
14474;SDS011;7323;50.848;4.334;2023-02-28T04:18:46;13.07;;;8.70;;
14474;SDS011;7323;50.848;4.334;2023-02-28T04:24:34;14.97;;;9.23;;
14474;SDS011;7323;50.848;4.334;2023-02-28T04:27:16;13.47;;;9.47;;
14474;SDS011;7323;50.848;4.334;2023-02-28T04:29:51;13.43;;;9.97;;
14474;SDS011;7323;50.848;4.334;2023-02-28T04:32:17;12.63;;;9.17;;
14474;SDS011;7323;50.848;4.334;2023-02-28T04:34:54;12.60;;;9.70;;
14474;SDS011;7323;50.848;4.334;2023-02-28T04:37:21;10.87;;;8.90;;
14474;SDS011;7323;50.848;4.334;2023-02-28T04:39:55;15.33;;;9.20;;
14474;SDS011;7323;50.848;4.334;2023-02-28T04:42:22;12.63;;;9.37;;
14474;SDS011;7323;50.848;4.334;2023-02-28T04:44:48;14.80;;;9.47;;
14474;SDS011;7323;50.848;4.334;2023-02-28T04:47:14;13.00;;;9.17;;
14474;SDS011;7323;50.848;4.334;2023-02-28T04:49:44;15.17;;;8.57;;
14474;SDS011;7323;50.848;4.334;2023-02-28T04:52:14;12.67;;;8.63;;
14474;SDS011;7323;50.848;4.334;2023-02-28T04:54:49;13.23;;;8.83;;
14474;SDS011;7323;50.848;4.334;2023-02-28T04:57:16;11.73;;;8.40;;
14474;SDS011;7323;50.848;4.334;2023-02-28T04:59:43;9.57;;;7.93;;
14474;SDS011;7323;50.848;4.334;2023-02-28T05:02:12;13.10;;;8.60;;
14474;SDS011;7323;50.848;4.334;2023-02-28T05:04:41;12.33;;;9.13;;
14474;SDS011;7323;50.848;4.334;2023-02-28T05:07:09;15.77;;;10.30;;
14474;SDS011;7323;50.848;4.334;2023-02-28T05:09:35;14.07;;;9.17;;
14474;SDS011;7323;50.848;4.334;2023-02-28T05:12:01;14.17;;;10.27;;
14474;SDS011;7323;50.848;4.334;2023-02-28T05:17:21;10.77;;;8.63;;
14474;SDS011;7323;50.848;4.334;2023-02-28T05:19:49;11.17;;;9.53;;
14474;SDS011;7323;50.848;4.334;2023-02-28T05:25:19;12.53;;;9.37;;
14474;SDS011;7323;50.848;4.334;2023-02-28T05:27:47;11.33;;;8.27;;
14474;SDS011;7323;50.848;4.334;2023-02-28T05:33:11;14.10;;;9.40;;
14474;SDS011;7323;50.848;4.334;2023-02-28T05:35:41;12.53;;;8.53;;
14474;SDS011;7323;50.848;4.334;2023-02-28T05:38:25;14.27;;;10.13;;
14474;SDS011;7323;50.848;4.334;2023-02-28T05:40:56;17.47;;;9.27;;
14474;SDS011;7323;50.848;4.334;2023-02-28T05:43:27;10.70;;;8.53;;
14474;SDS011;7323;50.848;4.334;2023-02-28T05:46:05;12.00;;;8.87;;
14474;SDS011;7323;50.848;4.334;2023-02-28T05:48:45;12.90;;;8.83;;
14474;SDS011;7323;50.848;4.334;2023-02-28T05:51:14;14.40;;;9.30;;
14474;SDS011;7323;50.848;4.334;2023-02-28T05:53:40;12.30;;;8.27;;
14474;SDS011;7323;50.848;4.334;2023-02-28T05:56:06;12.33;;;8.20;;
14474;SDS011;7323;50.848;4.334;2023-02-28T05:58:33;13.70;;;8.77;;
14474;SDS011;7323;50.848;4.334;2023-02-28T06:09:49;8.63;;;7.37;;
14474;SDS011;7323;50.848;4.334;2023-02-28T06:12:15;10.47;;;8.50;;
14474;SDS011;7323;50.848;4.334;2023-02-28T06:14:46;14.63;;;8.63;;
14474;SDS011;7323;50.848;4.334;2023-02-28T06:17:29;15.60;;;9.07;;
14474;SDS011;7323;50.848;4.334;2023-02-28T06:19:58;12.37;;;8.10;;
14474;SDS011;7323;50.848;4.334;2023-02-28T06:22:24;15.80;;;10.37;;
14474;SDS011;7323;50.848;4.334;2023-02-28T06:24:58;13.73;;;9.33;;
14474;SDS011;7323;50.848;4.334;2023-02-28T06:27:34;12.80;;;9.20;;
14474;SDS011;7323;50.848;4.334;2023-02-28T06:30:22;13.00;;;9.03;;
14474;SDS011;7323;50.848;4.334;2023-02-28T06:32:50;13.63;;;8.83;;
14474;SDS011;7323;50.848;4.334;2023-02-28T06:35:18;14.00;;;8.70;;
14474;SDS011;7323;50.848;4.334;2023-02-28T06:38:01;11.73;;;8.67;;
14474;SDS011;7323;50.848;4.334;2023-02-28T06:43:22;13.37;;;9.27;;
14474;SDS011;7323;50.848;4.334;2023-02-28T06:45:49;17.30;;;8.53;;
14474;SDS011;7323;50.848;4.334;2023-02-28T06:48:27;14.97;;;9.20;;
14474;SDS011;7323;50.848;4.334;2023-02-28T06:51:02;15.33;;;8.20;;
14474;SDS011;7323;50.848;4.334;2023-02-28T06:53:35;13.83;;;8.97;;
14474;SDS011;7323;50.848;4.334;2023-02-28T06:56:06;11.50;;;7.77;;
14474;SDS011;7323;50.848;4.334;2023-02-28T06:58:41;12.33;;;8.33;;
14474;SDS011;7323;50.848;4.334;2023-02-28T07:01:10;11.33;;;8.13;;
14474;SDS011;7323;50.848;4.334;2023-02-28T07:03:37;11.77;;;8.27;;
14474;SDS011;7323;50.848;4.334;2023-02-28T07:11:01;14.33;;;8.37;;
14474;SDS011;7323;50.848;4.334;2023-02-28T07:13:27;15.50;;;8.87;;
14474;SDS011;7323;50.848;4.334;2023-02-28T07:15:58;16.33;;;9.07;;
14474;SDS011;7323;50.848;4.334;2023-02-28T07:18:40;18.03;;;9.07;;
14474;SDS011;7323;50.848;4.334;2023-02-28T07:21:09;11.77;;;7.83;;
14474;SDS011;7323;50.848;4.334;2023-02-28T07:23:37;12.40;;;7.90;;
14474;SDS011;7323;50.848;4.334;2023-02-28T07:26:04;11.37;;;8.40;;
14474;SDS011;7323;50.848;4.334;2023-02-28T07:28:37;12.93;;;8.67;;
14474;SDS011;7323;50.848;4.334;2023-02-28T07:31:06;15.53;;;8.40;;
14474;SDS011;7323;50.848;4.334;2023-02-28T07:33:33;11.57;;;8.27;;
14474;SDS011;7323;50.848;4.334;2023-02-28T07:36:09;16.83;;;8.87;;
14474;SDS011;7323;50.848;4.334;2023-02-28T07:38:43;14.13;;;9.00;;
14474;SDS011;7323;50.848;4.334;2023-02-28T07:41:18;10.43;;;7.80;;
14474;SDS011;7323;50.848;4.334;2023-02-28T07:43:47;12.93;;;7.80;;
14474;SDS011;7323;50.848;4.334;2023-02-28T07:46:14;11.07;;;7.80;;
14474;SDS011;7323;50.848;4.334;2023-02-28T07:48:43;13.33;;;8.17;;
14474;SDS011;7323;50.848;4.334;2023-02-28T07:51:15;10.97;;;6.90;;
14474;SDS011;7323;50.848;4.334;2023-02-28T07:53:42;10.20;;;6.73;;
14474;SDS011;7323;50.848;4.334;2023-02-28T07:56:08;12.73;;;6.40;;
14474;SDS011;7323;50.848;4.334;2023-02-28T07:58:36;13.30;;;6.07;;
14474;SDS011;7323;50.848;4.334;2023-02-28T08:01:11;8.73;;;6.00;;
14474;SDS011;7323;50.848;4.334;2023-02-28T08:03:40;8.17;;;5.50;;
14474;SDS011;7323;50.848;4.334;2023-02-28T08:06:08;8.67;;;6.83;;
14474;SDS011;7323;50.848;4.334;2023-02-28T08:08:44;9.07;;;5.20;;
14474;SDS011;7323;50.848;4.334;2023-02-28T08:11:09;7.23;;;5.03;;
14474;SDS011;7323;50.848;4.334;2023-02-28T08:13:35;7.17;;;5.07;;
14474;SDS011;7323;50.848;4.334;2023-02-28T08:16:01;9.07;;;4.47;;
14474;SDS011;7323;50.848;4.334;2023-02-28T08:18:27;7.00;;;5.17;;
14474;SDS011;7323;50.848;4.334;2023-02-28T08:20:53;8.97;;;5.57;;
14474;SDS011;7323;50.848;4.334;2023-02-28T08:23:25;8.70;;;5.37;;
14474;SDS011;7323;50.848;4.334;2023-02-28T08:25:58;6.37;;;4.10;;
14474;SDS011;7323;50.848;4.334;2023-02-28T08:28:26;8.10;;;4.80;;
14474;SDS011;7323;50.848;4.334;2023-02-28T08:30:55;7.50;;;4.50;;
14474;SDS011;7323;50.848;4.334;2023-02-28T08:33:21;7.40;;;4.17;;
14474;SDS011;7323;50.848;4.334;2023-02-28T08:35:56;5.77;;;4.00;;
14474;SDS011;7323;50.848;4.334;2023-02-28T08:38:23;4.67;;;3.60;;
14474;SDS011;7323;50.848;4.334;2023-02-28T08:40:49;7.20;;;3.90;;
14474;SDS011;7323;50.848;4.334;2023-02-28T08:43:16;10.10;;;4.30;;
14474;SDS011;7323;50.848;4.334;2023-02-28T08:45:41;5.17;;;3.70;;
14474;SDS011;7323;50.848;4.334;2023-02-28T08:48:07;4.90;;;3.27;;
14474;SDS011;7323;50.848;4.334;2023-02-28T08:50:33;5.30;;;3.50;;
14474;SDS011;7323;50.848;4.334;2023-02-28T08:53:00;6.30;;;3.90;;
14474;SDS011;7323;50.848;4.334;2023-02-28T08:55:29;4.33;;;3.33;;
14474;SDS011;7323;50.848;4.334;2023-02-28T09:00:28;4.73;;;3.50;;
14474;SDS011;7323;50.848;4.334;2023-02-28T09:05:22;4.90;;;3.03;;
14474;SDS011;7323;50.848;4.334;2023-02-28T09:10:16;5.93;;;3.47;;
14474;SDS011;7323;50.848;4.334;2023-02-28T09:12:42;4.80;;;3.30;;
14474;SDS011;7323;50.848;4.334;2023-02-28T09:15:11;6.47;;;3.37;;
14474;SDS011;7323;50.848;4.334;2023-02-28T09:17:36;5.37;;;3.57;;
14474;SDS011;7323;50.848;4.334;2023-02-28T09:20:05;6.37;;;3.50;;
14474;SDS011;7323;50.848;4.334;2023-02-28T09:22:31;4.83;;;3.70;;
14474;SDS011;7323;50.848;4.334;2023-02-28T09:24:58;5.83;;;3.23;;
14474;SDS011;7323;50.848;4.334;2023-02-28T09:27:33;4.40;;;3.10;;
14474;SDS011;7323;50.848;4.334;2023-02-28T09:29:59;4.77;;;2.93;;
14474;SDS011;7323;50.848;4.334;2023-02-28T09:32:26;5.37;;;3.33;;
14474;SDS011;7323;50.848;4.334;2023-02-28T09:34:52;6.60;;;3.53;;
14474;SDS011;7323;50.848;4.334;2023-02-28T09:37:18;5.27;;;3.10;;
14474;SDS011;7323;50.848;4.334;2023-02-28T09:39:46;3.83;;;2.73;;
14474;SDS011;7323;50.848;4.334;2023-02-28T09:42:25;6.17;;;3.20;;
14474;SDS011;7323;50.848;4.334;2023-02-28T09:48:10;5.50;;;3.23;;
14474;SDS011;7323;50.848;4.334;2023-02-28T09:53:42;6.30;;;3.60;;
14474;SDS011;7323;50.848;4.334;2023-02-28T09:56:10;4.87;;;2.60;;
14474;SDS011;7323;50.848;4.334;2023-02-28T09:58:51;4.27;;;2.50;;
14474;SDS011;7323;50.848;4.334;2023-02-28T10:10:02;4.30;;;2.50;;
14474;SDS011;7323;50.848;4.334;2023-02-28T10:12:41;3.10;;;2.30;;
14474;SDS011;7323;50.848;4.334;2023-02-28T10:15:14;6.20;;;2.90;;
14474;SDS011;7323;50.848;4.334;2023-02-28T10:17:42;5.50;;;2.50;;
14474;SDS011;7323;50.848;4.334;2023-02-28T10:20:14;5.00;;;2.40;;
14474;SDS011;7323;50.848;4.334;2023-02-28T10:25:39;4.07;;;2.77;;
14474;SDS011;7323;50.848;4.334;2023-02-28T10:28:09;4.17;;;2.73;;
14474;SDS011;7323;50.848;4.334;2023-02-28T10:30:39;4.10;;;2.77;;
14474;SDS011;7323;50.848;4.334;2023-02-28T10:33:18;3.97;;;2.73;;
14474;SDS011;7323;50.848;4.334;2023-02-28T10:35:48;3.80;;;2.60;;
14474;SDS011;7323;50.848;4.334;2023-02-28T10:38:18;3.60;;;2.70;;
14474;SDS011;7323;50.848;4.334;2023-02-28T10:41:08;3.40;;;2.40;;
14474;SDS011;7323;50.848;4.334;2023-02-28T10:43:42;3.27;;;1.63;;
14474;SDS011;7323;50.848;4.334;2023-02-28T10:46:12;3.10;;;1.93;;
14474;SDS011;7323;50.848;4.334;2023-02-28T10:48:59;4.03;;;1.83;;
14474;SDS011;7323;50.848;4.334;2023-02-28T10:52:01;4.30;;;2.20;;
14474;SDS011;7323;50.848;4.334;2023-02-28T10:54:34;2.57;;;1.67;;
14474;SDS011;7323;50.848;4.334;2023-02-28T10:59:41;3.27;;;2.10;;
14474;SDS011;7323;50.848;4.334;2023-02-28T11:05:01;3.83;;;2.47;;
14474;SDS011;7323;50.848;4.334;2023-02-28T11:07:31;4.03;;;2.10;;
14474;SDS011;7323;50.848;4.334;2023-02-28T11:10:04;3.73;;;2.00;;
14474;SDS011;7323;50.848;4.334;2023-02-28T11:12:56;3.60;;;2.30;;
14474;SDS011;7323;50.848;4.334;2023-02-28T11:15:45;3.53;;;2.10;;
14474;SDS011;7323;50.848;4.334;2023-02-28T11:21:05;2.97;;;1.90;;
14474;SDS011;7323;50.848;4.334;2023-02-28T11:23:33;4.27;;;2.90;;
14474;SDS011;7323;50.848;4.334;2023-02-28T11:26:03;4.93;;;2.33;;
14474;SDS011;7323;50.848;4.334;2023-02-28T11:28:35;3.13;;;2.27;;
14474;SDS011;7323;50.848;4.334;2023-02-28T11:33:50;3.37;;;2.20;;
14474;SDS011;7323;50.848;4.334;2023-02-28T11:36:25;5.43;;;2.87;;
14474;SDS011;7323;50.848;4.334;2023-02-28T11:38:54;4.77;;;2.47;;
14474;SDS011;7323;50.848;4.334;2023-02-28T11:44:28;3.00;;;2.07;;
14474;SDS011;7323;50.848;4.334;2023-02-28T11:47:24;3.37;;;2.30;;
14474;SDS011;7323;50.848;4.334;2023-02-28T11:53:00;4.07;;;2.40;;
14474;SDS011;7323;50.848;4.334;2023-02-28T12:07:04;4.03;;;2.40;;
14474;SDS011;7323;50.848;4.334;2023-02-28T12:09:53;5.57;;;3.07;;
14474;SDS011;7323;50.848;4.334;2023-02-28T12:18:15;4.90;;;2.30;;
14474;SDS011;7323;50.848;4.334;2023-02-28T12:28:53;4.60;;;2.50;;
14474;SDS011;7323;50.848;4.334;2023-02-28T12:31:24;6.93;;;2.70;;
14474;SDS011;7323;50.848;4.334;2023-02-28T12:34:01;4.67;;;2.17;;
14474;SDS011;7323;50.848;4.334;2023-02-28T12:36:34;3.83;;;2.30;;
14474;SDS011;7323;50.848;4.334;2023-02-28T12:39:08;4.63;;;2.70;;
14474;SDS011;7323;50.848;4.334;2023-02-28T12:41:49;3.07;;;2.20;;
14474;SDS011;7323;50.848;4.334;2023-02-28T12:47:02;4.53;;;2.60;;
14474;SDS011;7323;50.848;4.334;2023-02-28T12:49:34;3.33;;;2.50;;
14474;SDS011;7323;50.848;4.334;2023-02-28T12:52:09;4.13;;;2.80;;
14474;SDS011;7323;50.848;4.334;2023-02-28T12:55:04;3.30;;;2.10;;
14474;SDS011;7323;50.848;4.334;2023-02-28T13:00:20;3.63;;;2.30;;
14474;SDS011;7323;50.848;4.334;2023-02-28T13:05:55;2.37;;;2.00;;
14474;SDS011;7323;50.848;4.334;2023-02-28T13:14:05;4.53;;;2.67;;
14474;SDS011;7323;50.848;4.334;2023-02-28T13:19:41;6.13;;;2.37;;
14474;SDS011;7323;50.848;4.334;2023-02-28T13:22:37;2.97;;;2.23;;
14474;SDS011;7323;50.848;4.334;2023-02-28T13:26:05;3.33;;;2.50;;
14474;SDS011;7323;50.848;4.334;2023-02-28T13:28:08;3.47;;;2.20;;
14474;SDS011;7323;50.848;4.334;2023-02-28T13:33:21;3.43;;;1.90;;
14474;SDS011;7323;50.848;4.334;2023-02-28T13:36:08;4.63;;;1.90;;
14474;SDS011;7323;50.848;4.334;2023-02-28T13:38:40;4.13;;;2.17;;
14474;SDS011;7323;50.848;4.334;2023-02-28T13:44:07;4.47;;;2.30;;
14474;SDS011;7323;50.848;4.334;2023-02-28T13:46:36;4.40;;;2.33;;
14474;SDS011;7323;50.848;4.334;2023-02-28T13:51:51;5.20;;;2.30;;
14474;SDS011;7323;50.848;4.334;2023-02-28T13:54:33;3.97;;;2.60;;
14474;SDS011;7323;50.848;4.334;2023-02-28T14:00:02;3.67;;;2.57;;
14474;SDS011;7323;50.848;4.334;2023-02-28T14:05:34;2.77;;;2.07;;
14474;SDS011;7323;50.848;4.334;2023-02-28T14:08:18;4.80;;;2.67;;
14474;SDS011;7323;50.848;4.334;2023-02-28T14:11:02;9.23;;;2.80;;
14474;SDS011;7323;50.848;4.334;2023-02-28T14:13:42;3.00;;;2.40;;
14474;SDS011;7323;50.848;4.334;2023-02-28T14:16:13;3.87;;;2.67;;
14474;SDS011;7323;50.848;4.334;2023-02-28T14:18:47;4.70;;;2.53;;
14474;SDS011;7323;50.848;4.334;2023-02-28T14:21:27;5.43;;;2.03;;
14474;SDS011;7323;50.848;4.334;2023-02-28T14:32:31;5.53;;;2.60;;
14474;SDS011;7323;50.848;4.334;2023-02-28T14:38:05;3.77;;;2.50;;
14474;SDS011;7323;50.848;4.334;2023-02-28T14:40:42;3.93;;;2.43;;
14474;SDS011;7323;50.848;4.334;2023-02-28T14:43:23;3.27;;;2.47;;
14474;SDS011;7323;50.848;4.334;2023-02-28T14:45:55;5.53;;;3.00;;
14474;SDS011;7323;50.848;4.334;2023-02-28T14:48:23;3.60;;;2.33;;
14474;SDS011;7323;50.848;4.334;2023-02-28T14:50:58;4.07;;;2.40;;
14474;SDS011;7323;50.848;4.334;2023-02-28T14:53:29;4.37;;;2.83;;
14474;SDS011;7323;50.848;4.334;2023-02-28T14:56:01;3.30;;;2.70;;
14474;SDS011;7323;50.848;4.334;2023-02-28T14:58:30;6.13;;;2.90;;
14474;SDS011;7323;50.848;4.334;2023-02-28T15:00:58;6.37;;;2.60;;
14474;SDS011;7323;50.848;4.334;2023-02-28T15:06:05;3.43;;;2.43;;
14474;SDS011;7323;50.848;4.334;2023-02-28T15:08:38;4.77;;;3.07;;
14474;SDS011;7323;50.848;4.334;2023-02-28T15:11:19;4.73;;;2.90;;
14474;SDS011;7323;50.848;4.334;2023-02-28T15:13:48;6.00;;;3.20;;
14474;SDS011;7323;50.848;4.334;2023-02-28T15:16:17;4.70;;;2.93;;
14474;SDS011;7323;50.848;4.334;2023-02-28T15:19:37;4.37;;;2.80;;
14474;SDS011;7323;50.848;4.334;2023-02-28T15:22:10;3.13;;;2.60;;
14474;SDS011;7323;50.848;4.334;2023-02-28T15:24:42;3.87;;;2.63;;
14474;SDS011;7323;50.848;4.334;2023-02-28T15:27:24;3.73;;;2.80;;
14474;SDS011;7323;50.848;4.334;2023-02-28T15:32:37;4.63;;;3.00;;
14474;SDS011;7323;50.848;4.334;2023-02-28T15:38:04;4.90;;;3.07;;
14474;SDS011;7323;50.848;4.334;2023-02-28T15:40:51;4.43;;;2.97;;
14474;SDS011;7323;50.848;4.334;2023-02-28T15:46:08;5.20;;;3.07;;
14474;SDS011;7323;50.848;4.334;2023-02-28T15:48:52;3.40;;;2.47;;
14474;SDS011;7323;50.848;4.334;2023-02-28T15:51:22;4.00;;;3.03;;
14474;SDS011;7323;50.848;4.334;2023-02-28T15:54:05;4.07;;;2.83;;
14474;SDS011;7323;50.848;4.334;2023-02-28T15:56:35;7.17;;;3.30;;
14474;SDS011;7323;50.848;4.334;2023-02-28T15:59:27;4.53;;;3.40;;
14474;SDS011;7323;50.848;4.334;2023-02-28T16:05:01;4.83;;;2.80;;
14474;SDS011;7323;50.848;4.334;2023-02-28T16:07:57;6.00;;;2.80;;
14474;SDS011;7323;50.848;4.334;2023-02-28T16:10:32;4.20;;;2.80;;
14474;SDS011;7323;50.848;4.334;2023-02-28T16:12:57;4.90;;;2.90;;
14474;SDS011;7323;50.848;4.334;2023-02-28T16:15:25;5.77;;;3.20;;
14474;SDS011;7323;50.848;4.334;2023-02-28T16:17:53;3.87;;;2.83;;
14474;SDS011;7323;50.848;4.334;2023-02-28T16:20:21;3.57;;;2.80;;
14474;SDS011;7323;50.848;4.334;2023-02-28T16:22:53;5.07;;;3.13;;
14474;SDS011;7323;50.848;4.334;2023-02-28T16:25:20;3.53;;;2.73;;
14474;SDS011;7323;50.848;4.334;2023-02-28T16:27:59;3.80;;;2.80;;
14474;SDS011;7323;50.848;4.334;2023-02-28T16:30:26;4.37;;;2.83;;
14474;SDS011;7323;50.848;4.334;2023-02-28T16:32:57;8.03;;;3.03;;
14474;SDS011;7323;50.848;4.334;2023-02-28T16:35:24;4.47;;;3.00;;
14474;SDS011;7323;50.848;4.334;2023-02-28T16:37:52;3.40;;;2.70;;
14474;SDS011;7323;50.848;4.334;2023-02-28T16:40:20;4.00;;;2.57;;
14474;SDS011;7323;50.848;4.334;2023-02-28T16:42:52;4.87;;;3.30;;
14474;SDS011;7323;50.848;4.334;2023-02-28T16:45:23;6.33;;;3.10;;
14474;SDS011;7323;50.848;4.334;2023-02-28T16:47:52;4.43;;;2.90;;
14474;SDS011;7323;50.848;4.334;2023-02-28T16:50:23;4.23;;;2.47;;
14474;SDS011;7323;50.848;4.334;2023-02-28T16:52:51;4.93;;;2.43;;
14474;SDS011;7323;50.848;4.334;2023-02-28T16:58:06;5.27;;;3.10;;
14474;SDS011;7323;50.848;4.334;2023-02-28T17:00:36;5.00;;;2.53;;
14474;SDS011;7323;50.848;4.334;2023-02-28T17:03:02;4.43;;;2.93;;
14474;SDS011;7323;50.848;4.334;2023-02-28T17:05:37;3.90;;;2.77;;
14474;SDS011;7323;50.848;4.334;2023-02-28T17:08:06;6.60;;;3.20;;
14474;SDS011;7323;50.848;4.334;2023-02-28T17:10:34;6.63;;;3.37;;
14474;SDS011;7323;50.848;4.334;2023-02-28T17:13:00;4.90;;;2.63;;
14474;SDS011;7323;50.848;4.334;2023-02-28T17:15:26;4.77;;;2.97;;
14474;SDS011;7323;50.848;4.334;2023-02-28T17:17:52;6.70;;;3.07;;
14474;SDS011;7323;50.848;4.334;2023-02-28T17:20:19;3.53;;;2.60;;
14474;SDS011;7323;50.848;4.334;2023-02-28T17:22:55;4.63;;;3.17;;
14474;SDS011;7323;50.848;4.334;2023-02-28T17:25:21;4.40;;;2.90;;
14474;SDS011;7323;50.848;4.334;2023-02-28T17:27:48;9.53;;;3.30;;
14474;SDS011;7323;50.848;4.334;2023-02-28T17:30:20;5.50;;;2.73;;
14474;SDS011;7323;50.848;4.334;2023-02-28T17:32:48;4.70;;;2.87;;
14474;SDS011;7323;50.848;4.334;2023-02-28T17:35:14;5.53;;;3.13;;
14474;SDS011;7323;50.848;4.334;2023-02-28T17:37:41;6.70;;;3.47;;
14474;SDS011;7323;50.848;4.334;2023-02-28T17:42:44;6.43;;;3.50;;
14474;SDS011;7323;50.848;4.334;2023-02-28T17:45:27;5.83;;;3.00;;
14474;SDS011;7323;50.848;4.334;2023-02-28T17:47:52;6.33;;;2.97;;
14474;SDS011;7323;50.848;4.334;2023-02-28T17:50:19;4.10;;;3.07;;
14474;SDS011;7323;50.848;4.334;2023-02-28T17:52:47;4.80;;;2.90;;
14474;SDS011;7323;50.848;4.334;2023-02-28T17:55:17;4.10;;;2.80;;
14474;SDS011;7323;50.848;4.334;2023-02-28T17:57:50;6.47;;;3.37;;
14474;SDS011;7323;50.848;4.334;2023-02-28T18:00:16;5.43;;;3.13;;
14474;SDS011;7323;50.848;4.334;2023-02-28T18:02:42;5.83;;;3.87;;
14474;SDS011;7323;50.848;4.334;2023-02-28T18:05:09;4.93;;;3.37;;
14474;SDS011;7323;50.848;4.334;2023-02-28T18:07:36;5.00;;;3.10;;
14474;SDS011;7323;50.848;4.334;2023-02-28T18:10:06;8.03;;;4.83;;
14474;SDS011;7323;50.848;4.334;2023-02-28T18:12:39;6.20;;;3.63;;
14474;SDS011;7323;50.848;4.334;2023-02-28T18:15:05;6.73;;;3.87;;
14474;SDS011;7323;50.848;4.334;2023-02-28T18:17:32;6.00;;;3.67;;
14474;SDS011;7323;50.848;4.334;2023-02-28T18:22:40;5.83;;;3.67;;
14474;SDS011;7323;50.848;4.334;2023-02-28T18:25:09;5.07;;;3.33;;
14474;SDS011;7323;50.848;4.334;2023-02-28T18:27:38;5.23;;;3.20;;
14474;SDS011;7323;50.848;4.334;2023-02-28T18:30:05;5.67;;;2.93;;
14474;SDS011;7323;50.848;4.334;2023-02-28T18:32:34;6.20;;;3.30;;
14474;SDS011;7323;50.848;4.334;2023-02-28T18:35:00;8.93;;;4.13;;
14474;SDS011;7323;50.848;4.334;2023-02-28T18:37:26;10.67;;;4.23;;
14474;SDS011;7323;50.848;4.334;2023-02-28T18:40:03;5.70;;;4.60;;
14474;SDS011;7323;50.848;4.334;2023-02-28T18:42:34;5.57;;;4.17;;
14474;SDS011;7323;50.848;4.334;2023-02-28T18:45:04;5.80;;;4.13;;
14474;SDS011;7323;50.848;4.334;2023-02-28T18:47:34;4.83;;;3.50;;
14474;SDS011;7323;50.848;4.334;2023-02-28T18:50:01;7.37;;;4.70;;
14474;SDS011;7323;50.848;4.334;2023-02-28T18:52:27;7.40;;;4.67;;
14474;SDS011;7323;50.848;4.334;2023-02-28T18:54:52;7.30;;;4.40;;
14474;SDS011;7323;50.848;4.334;2023-02-28T18:57:18;5.33;;;3.80;;
14474;SDS011;7323;50.848;4.334;2023-02-28T18:59:44;6.60;;;4.23;;
14474;SDS011;7323;50.848;4.334;2023-02-28T19:02:10;7.47;;;4.63;;
14474;SDS011;7323;50.848;4.334;2023-02-28T19:04:40;5.70;;;4.10;;
14474;SDS011;7323;50.848;4.334;2023-02-28T19:07:27;8.03;;;4.73;;
14474;SDS011;7323;50.848;4.334;2023-02-28T19:10:00;6.30;;;4.70;;
14474;SDS011;7323;50.848;4.334;2023-02-28T19:12:27;8.13;;;4.67;;
14474;SDS011;7323;50.848;4.334;2023-02-28T19:14:54;7.43;;;4.87;;
14474;SDS011;7323;50.848;4.334;2023-02-28T19:17:20;5.13;;;4.33;;